Time;durP1;ratioP1;P1;durP2;ratioP2;P2;SDS_P1;SDS_P2;PMS_P1;PMS_P2;Temp;Humidity;BMP_temperature;BMP_pressure;BME280_temperature;BME280_humidity;BME280_pressure;Samples;Min_cycle;Max_cycle;Signal;HPM_P1;HPM_P2
2021/01/17 00:00:53;;;;;;;14.77;9.70;;;;;;;;;;5066008;28;20453;-47
2021/01/17 00:03:21;;;;;;;17.10;10.57;;;;;;;;;;5066119;28;20043;-46
2021/01/17 00:05:49;;;;;;;16.15;10.60;;;;;;;;;;5065522;28;20013;-47
2021/01/17 00:08:17;;;;;;;19.10;10.98;;;;;;;;;;5065937;28;20448;-47
2021/01/17 00:10:43;;;;;;;17.60;10.63;;;;;;;;;;5065590;28;20034;-48
2021/01/17 00:13:10;;;;;;;16.65;10.10;;;;;;;;;;5065995;28;20025;-46
2021/01/17 00:15:37;;;;;;;16.63;10.52;;;;;;;;;;5066781;28;20020;-46
2021/01/17 00:18:03;;;;;;;18.83;10.63;;;;;;;;;;5066428;28;20159;-46
2021/01/17 00:20:30;;;;;;;16.52;10.13;;;;;;;;;;5065647;28;20076;-47
2021/01/17 00:23:00;;;;;;;18.13;10.88;;;;;;;;;;5065058;28;20032;-46
2021/01/17 00:25:26;;;;;;;17.83;10.30;;;;;;;;;;5066244;28;20028;-46
2021/01/17 00:27:53;;;;;;;17.85;11.10;;;;;;;;;;5065391;28;20099;-49
2021/01/17 00:30:20;;;;;;;19.83;11.10;;;;;;;;;;5062205;28;20099;-48
2021/01/17 00:32:53;;;;;;;16.58;9.80;;;;;;;;;;5064609;28;20524;-48
2021/01/17 00:35:19;;;;;;;17.45;10.55;;;;;;;;;;5064720;28;20401;-49
2021/01/17 00:37:50;;;;;;;18.27;10.95;;;;;;;;;;5065952;28;20036;-48
2021/01/17 00:40:16;;;;;;;16.85;9.90;;;;;;;;;;5064854;28;20028;-49
2021/01/17 00:42:49;;;;;;;19.88;11.40;;;;;;;;;;5065795;28;20036;-48
2021/01/17 00:45:15;;;;;;;18.25;10.95;;;;;;;;;;5065897;28;20029;-48
2021/01/17 00:47:48;;;;;;;19.15;11.95;;;;;;;;;;5065584;28;20032;-51
2021/01/17 00:50:16;;;;;;;16.55;10.63;;;;;;;;;;5064558;28;20217;-48
2021/01/17 00:52:42;;;;;;;18.05;11.00;;;;;;;;;;5064656;28;20093;-49
2021/01/17 00:55:08;;;;;;;17.45;11.20;;;;;;;;;;5065744;28;20081;-48
2021/01/17 00:57:35;;;;;;;18.90;10.23;;;;;;;;;;5066016;28;20036;-48
2021/01/17 01:00:05;;;;;;;17.35;10.60;;;;;;;;;;5065623;28;20028;-48
2021/01/17 01:02:30;;;;;;;16.58;10.48;;;;;;;;;;5065693;28;20035;-49
2021/01/17 01:04:57;;;;;;;16.25;10.73;;;;;;;;;;5066001;28;20051;-48
2021/01/17 01:07:26;;;;;;;18.35;10.18;;;;;;;;;;5066216;28;20121;-48
2021/01/17 01:09:52;;;;;;;16.10;9.60;;;;;;;;;;5064390;28;20509;-48
2021/01/17 01:12:18;;;;;;;14.05;9.45;;;;;;;;;;5064756;28;20032;-49
2021/01/17 01:14:44;;;;;;;16.38;9.35;;;;;;;;;;5065219;28;20060;-48
2021/01/17 01:17:11;;;;;;;14.15;8.60;;;;;;;;;;5065245;28;20058;-49
2021/01/17 01:19:37;;;;;;;13.10;8.43;;;;;;;;;;5064819;28;20490;-49
2021/01/17 01:22:06;;;;;;;14.68;9.63;;;;;;;;;;5065047;28;20032;-48
2021/01/17 01:24:32;;;;;;;14.13;8.77;;;;;;;;;;5065160;28;20029;-48
2021/01/17 01:26:58;;;;;;;13.32;8.40;;;;;;;;;;5064957;28;20029;-48
2021/01/17 01:29:25;;;;;;;18.20;9.40;;;;;;;;;;5065482;28;20052;-48
2021/01/17 01:31:51;;;;;;;15.15;8.32;;;;;;;;;;5065199;28;20398;-47
2021/01/17 01:34:17;;;;;;;13.25;8.27;;;;;;;;;;5064755;28;20023;-49
2021/01/17 01:36:44;;;;;;;14.48;9.25;;;;;;;;;;5064008;28;20028;-48
2021/01/17 01:39:10;;;;;;;15.15;9.38;;;;;;;;;;5061651;28;20037;-48
2021/01/17 01:41:37;;;;;;;15.80;9.38;;;;;;;;;;5044853;28;20446;-51
2021/01/17 01:44:04;;;;;;;15.18;9.13;;;;;;;;;;5046835;28;20020;-48
2021/01/17 01:46:31;;;;;;;13.75;8.38;;;;;;;;;;5064651;28;20035;-49
2021/01/17 01:48:59;;;;;;;14.73;8.75;;;;;;;;;;5064583;28;20028;-47
2021/01/17 01:51:27;;;;;;;11.23;7.78;;;;;;;;;;5063822;28;20309;-47
2021/01/17 01:53:55;;;;;;;11.55;7.53;;;;;;;;;;5064488;28;20048;-49
2021/01/17 01:56:21;;;;;;;11.40;7.45;;;;;;;;;;5064565;28;20025;-49
2021/01/17 01:58:48;;;;;;;11.82;7.70;;;;;;;;;;5064068;28;20023;-48
2021/01/17 02:01:14;;;;;;;11.45;7.30;;;;;;;;;;5064645;28;20023;-49
2021/01/17 02:03:46;;;;;;;12.63;8.27;;;;;;;;;;5064104;28;20029;-50
2021/01/17 02:06:12;;;;;;;12.73;7.95;;;;;;;;;;5064208;28;20021;-51
2021/01/17 02:08:44;;;;;;;11.82;7.22;;;;;;;;;;5063943;28;20104;-50
2021/01/17 02:11:25;;;;;;;13.02;7.22;;;;;;;;;;5064434;28;20020;-49
2021/01/17 02:13:57;;;;;;;10.23;6.82;;;;;;;;;;5064251;28;20036;-48
2021/01/17 02:16:23;;;;;;;12.35;8.00;;;;;;;;;;5064398;28;20035;-48
2021/01/17 02:18:52;;;;;;;12.63;7.40;;;;;;;;;;5063634;28;20041;-49
2021/01/17 02:21:18;;;;;;;10.95;7.10;;;;;;;;;;5064324;28;21036;-48
2021/01/17 02:23:52;;;;;;;10.52;6.97;;;;;;;;;;5063835;28;20111;-48
2021/01/17 02:26:19;;;;;;;12.45;7.57;;;;;;;;;;5064494;28;20064;-48
2021/01/17 02:28:47;;;;;;;11.95;7.30;;;;;;;;;;5063911;28;20028;-48
2021/01/17 02:31:14;;;;;;;12.00;7.53;;;;;;;;;;5063366;28;20021;-48
2021/01/17 02:33:41;;;;;;;10.98;6.70;;;;;;;;;;5064493;28;20024;-50
2021/01/17 02:36:32;;;;;;;11.27;7.10;;;;;;;;;;5063802;28;20067;-49
2021/01/17 02:39:09;;;;;;;10.43;6.65;;;;;;;;;;5063113;28;20040;-48
2021/01/17 02:41:55;;;;;;;12.73;8.30;;;;;;;;;;5063823;28;20104;-48
2021/01/17 02:44:24;;;;;;;11.20;7.80;;;;;;;;;;5063900;28;20032;-47
2021/01/17 02:46:51;;;;;;;12.85;7.95;;;;;;;;;;5063418;28;20031;-48
2021/01/17 02:49:17;;;;;;;11.93;7.35;;;;;;;;;;5062496;28;20058;-49
2021/01/17 02:51:43;;;;;;;12.15;7.60;;;;;;;;;;5063606;28;20017;-48
2021/01/17 02:54:14;;;;;;;12.25;7.35;;;;;;;;;;5064760;28;20017;-48
2021/01/17 02:56:42;;;;;;;12.02;7.55;;;;;;;;;;5064365;28;20433;-49
2021/01/17 02:59:10;;;;;;;10.25;6.70;;;;;;;;;;5064468;28;20021;-50
2021/01/17 03:01:38;;;;;;;12.45;7.90;;;;;;;;;;5064349;28;20618;-48
2021/01/17 03:04:16;;;;;;;13.77;9.35;;;;;;;;;;5063678;28;20020;-50
2021/01/17 03:06:43;;;;;;;11.80;7.57;;;;;;;;;;5063459;28;20078;-49
2021/01/17 03:09:10;;;;;;;13.88;8.70;;;;;;;;;;5063153;28;20029;-50
2021/01/17 03:11:36;;;;;;;13.57;8.13;;;;;;;;;;5064314;28;20025;-49
2021/01/17 03:14:04;;;;;;;14.35;8.95;;;;;;;;;;5063638;28;20115;-48
2021/01/17 03:16:30;;;;;;;12.95;8.38;;;;;;;;;;5066008;28;20027;-49
2021/01/17 03:18:57;;;;;;;14.93;8.68;;;;;;;;;;5067493;28;20032;-50
2021/01/17 03:21:23;;;;;;;13.98;8.18;;;;;;;;;;5067514;28;20035;-49
2021/01/17 03:23:49;;;;;;;13.80;8.65;;;;;;;;;;5067238;28;20032;-49
2021/01/17 03:26:16;;;;;;;13.15;7.93;;;;;;;;;;5067614;28;20498;-48
2021/01/17 03:28:42;;;;;;;13.95;7.68;;;;;;;;;;5066940;28;20549;-49
2021/01/17 03:31:08;;;;;;;11.98;7.45;;;;;;;;;;5067892;28;20498;-48
2021/01/17 03:33:34;;;;;;;12.65;8.00;;;;;;;;;;5067607;28;20024;-48
2021/01/17 03:36:01;;;;;;;12.82;7.68;;;;;;;;;;5066887;28;20368;-49
2021/01/17 03:38:28;;;;;;;12.65;7.28;;;;;;;;;;5067061;28;20039;-49
2021/01/17 03:40:54;;;;;;;12.93;7.35;;;;;;;;;;5067233;28;21074;-49
2021/01/17 03:43:21;;;;;;;12.13;7.57;;;;;;;;;;5067349;28;20119;-51
2021/01/17 03:45:47;;;;;;;10.38;7.10;;;;;;;;;;5067046;28;20060;-50
2021/01/17 03:48:14;;;;;;;10.52;6.53;;;;;;;;;;5066300;28;20071;-49
2021/01/17 03:50:40;;;;;;;11.43;7.30;;;;;;;;;;5066861;28;20032;-49
2021/01/17 03:53:06;;;;;;;11.75;7.30;;;;;;;;;;5067700;28;20020;-48
2021/01/17 03:55:32;;;;;;;12.30;7.30;;;;;;;;;;5066914;28;20025;-49
2021/01/17 03:57:59;;;;;;;11.30;7.20;;;;;;;;;;5066545;28;20020;-48
2021/01/17 04:00:25;;;;;;;11.77;7.50;;;;;;;;;;5066888;28;20539;-48
2021/01/17 04:02:52;;;;;;;12.73;7.93;;;;;;;;;;5048344;28;20438;-49
2021/01/17 04:05:18;;;;;;;11.23;6.85;;;;;;;;;;5066941;28;20054;-51
2021/01/17 04:07:44;;;;;;;11.05;7.28;;;;;;;;;;5066574;28;20441;-48
2021/01/17 04:10:10;;;;;;;10.32;6.55;;;;;;;;;;5067347;28;20056;-49
2021/01/17 04:12:37;;;;;;;12.20;6.88;;;;;;;;;;5067223;28;20032;-49
2021/01/17 04:15:04;;;;;;;9.48;6.40;;;;;;;;;;5066355;28;20475;-49
2021/01/17 04:17:30;;;;;;;10.48;6.30;;;;;;;;;;5066508;28;20508;-48
2021/01/17 04:19:56;;;;;;;10.95;7.30;;;;;;;;;;5066226;28;20442;-48
2021/01/17 04:22:22;;;;;;;12.20;7.60;;;;;;;;;;5066335;28;20036;-48
2021/01/17 04:24:48;;;;;;;10.55;6.43;;;;;;;;;;5066171;28;20024;-48
2021/01/17 04:27:15;;;;;;;11.35;6.50;;;;;;;;;;5065106;28;20064;-49
2021/01/17 04:29:41;;;;;;;10.57;6.78;;;;;;;;;;5065023;28;20085;-49
2021/01/17 04:32:07;;;;;;;12.20;6.68;;;;;;;;;;5066571;28;20498;-49
2021/01/17 04:34:33;;;;;;;10.23;6.95;;;;;;;;;;5065837;28;20017;-48
2021/01/17 04:37:00;;;;;;;10.60;6.53;;;;;;;;;;5046770;28;20032;-49
2021/01/17 04:39:27;;;;;;;11.98;6.60;;;;;;;;;;5065648;28;20043;-48
2021/01/17 04:41:58;;;;;;;10.60;6.55;;;;;;;;;;5066532;28;20079;-49
2021/01/17 04:44:32;;;;;;;10.05;6.43;;;;;;;;;;5066303;28;20082;-48
2021/01/17 04:47:00;;;;;;;12.38;7.32;;;;;;;;;;5064674;28;20047;-48
2021/01/17 04:49:26;;;;;;;12.30;7.20;;;;;;;;;;5065876;28;20028;-48
2021/01/17 04:51:53;;;;;;;11.95;7.20;;;;;;;;;;5066556;28;20029;-48
2021/01/17 04:54:19;;;;;;;10.75;6.95;;;;;;;;;;5065830;28;20107;-48
2021/01/17 04:57:14;;;;;;;14.23;8.82;;;;;;;;;;5065540;28;20167;-48
2021/01/17 05:00:02;;;;;;;14.95;9.13;;;;;;;;;;5048276;28;20434;-49
2021/01/17 05:02:35;;;;;;;13.27;8.00;;;;;;;;;;5065411;28;20033;-47
2021/01/17 05:05:07;;;;;;;16.55;9.23;;;;;;;;;;5065101;28;20111;-48
2021/01/17 05:07:38;;;;;;;14.93;8.60;;;;;;;;;;5064801;28;20107;-48
2021/01/17 05:10:04;;;;;;;15.68;7.85;;;;;;;;;;5065659;28;20062;-48
2021/01/17 05:12:39;;;;;;;13.60;7.57;;;;;;;;;;5065189;28;20443;-49
2021/01/17 05:15:06;;;;;;;12.68;7.60;;;;;;;;;;5065564;28;20375;-48
2021/01/17 05:17:40;;;;;;;15.80;8.35;;;;;;;;;;5047257;28;20103;-48
2021/01/17 05:20:06;;;;;;;19.35;9.70;;;;;;;;;;5065208;28;20031;-48
2021/01/17 05:22:32;;;;;;;20.15;9.45;;;;;;;;;;5065463;28;20028;-51
2021/01/17 05:24:59;;;;;;;16.45;8.70;;;;;;;;;;5065123;28;20305;-49
2021/01/17 05:27:25;;;;;;;15.27;7.47;;;;;;;;;;5065646;28;20032;-50
2021/01/17 05:29:51;;;;;;;13.98;7.45;;;;;;;;;;5065295;28;20502;-49
2021/01/17 05:32:17;;;;;;;12.95;7.45;;;;;;;;;;5065069;28;20032;-49
2021/01/17 05:34:43;;;;;;;12.45;6.93;;;;;;;;;;5064302;28;20340;-48
2021/01/17 05:37:10;;;;;;;14.10;7.65;;;;;;;;;;5065122;28;20029;-48
2021/01/17 05:39:55;;;;;;;12.32;7.65;;;;;;;;;;5064714;28;20036;-48
2021/01/17 05:42:25;;;;;;;13.30;7.70;;;;;;;;;;5064445;28;20063;-48
2021/01/17 05:44:51;;;;;;;16.00;8.15;;;;;;;;;;5065047;28;20058;-48
2021/01/17 05:47:21;;;;;;;12.90;7.32;;;;;;;;;;5063597;28;20133;-49
2021/01/17 05:49:48;;;;;;;11.45;7.03;;;;;;;;;;5064563;28;20032;-48
2021/01/17 05:52:15;;;;;;;13.10;7.90;;;;;;;;;;5064537;28;20100;-49
2021/01/17 05:54:42;;;;;;;12.25;7.82;;;;;;;;;;5064605;28;20021;-48
2021/01/17 05:57:15;;;;;;;15.07;8.90;;;;;;;;;;5064680;28;20025;-48
2021/01/17 05:59:42;;;;;;;13.48;8.68;;;;;;;;;;5064469;28;20463;-49
2021/01/17 06:02:15;;;;;;;14.38;8.65;;;;;;;;;;5064691;28;20094;-48
2021/01/17 06:04:43;;;;;;;12.88;7.82;;;;;;;;;;5064234;28;20032;-49
2021/01/17 06:07:11;;;;;;;14.88;8.55;;;;;;;;;;5064671;28;20474;-48
2021/01/17 06:09:38;;;;;;;12.80;7.88;;;;;;;;;;5064367;28;20024;-47
2021/01/17 06:12:05;;;;;;;13.65;8.35;;;;;;;;;;5064567;28;20024;-49
2021/01/17 06:14:31;;;;;;;12.75;7.55;;;;;;;;;;5064698;28;20115;-48
2021/01/17 06:17:00;;;;;;;13.10;7.90;;;;;;;;;;5064349;28;20016;-48
2021/01/17 06:19:32;;;;;;;17.23;9.27;;;;;;;;;;5064464;28;20480;-49
2021/01/17 06:22:03;;;;;;;15.98;9.38;;;;;;;;;;5064605;28;20028;-48
2021/01/17 06:24:39;;;;;;;14.45;9.13;;;;;;;;;;5064372;28;20028;-48
2021/01/17 06:27:06;;;;;;;11.15;7.45;;;;;;;;;;5064535;28;20683;-48
2021/01/17 06:29:36;;;;;;;12.25;7.55;;;;;;;;;;5062811;28;20078;-48
2021/01/17 06:32:31;;;;;;;12.30;7.47;;;;;;;;;;5064619;28;20024;-48
2021/01/17 06:34:58;;;;;;;13.32;8.07;;;;;;;;;;5045318;28;20028;-49
2021/01/17 06:37:25;;;;;;;11.55;7.47;;;;;;;;;;5064717;28;20035;-49
2021/01/17 06:39:53;;;;;;;12.13;6.72;;;;;;;;;;5063861;28;20036;-49
2021/01/17 06:42:20;;;;;;;11.05;6.88;;;;;;;;;;5064387;28;20031;-49
2021/01/17 06:44:47;;;;;;;10.48;6.93;;;;;;;;;;5064875;28;20029;-48
2021/01/17 06:47:17;;;;;;;12.55;7.25;;;;;;;;;;5065526;28;20036;-48
2021/01/17 06:49:43;;;;;;;13.95;8.15;;;;;;;;;;5058461;28;20104;-49
2021/01/17 06:52:10;;;;;;;13.52;8.02;;;;;;;;;;5068744;28;20025;-51
2021/01/17 06:54:54;;;;;;;11.98;7.78;;;;;;;;;;5071164;28;20099;-50
2021/01/17 06:57:21;;;;;;;15.40;8.85;;;;;;;;;;5062927;28;20051;-50
2021/01/17 06:59:48;;;;;;;15.30;8.90;;;;;;;;;;5049580;28;20028;-48
2021/01/17 07:02:17;;;;;;;13.32;8.57;;;;;;;;;;5057219;28;20056;-49
2021/01/17 07:04:49;;;;;;;12.15;7.22;;;;;;;;;;5069233;28;20025;-48
2021/01/17 07:07:33;;;;;;;12.48;7.70;;;;;;;;;;5069332;28;20036;-48
2021/01/17 07:10:01;;;;;;;13.60;8.30;;;;;;;;;;5069797;28;20146;-49
2021/01/17 07:12:36;;;;;;;13.48;8.35;;;;;;;;;;5069040;28;20025;-50
2021/01/17 07:15:07;;;;;;;14.60;9.60;;;;;;;;;;5069805;28;20815;-48
2021/01/17 07:17:37;;;;;;;16.08;9.45;;;;;;;;;;5069523;28;20597;-49
2021/01/17 07:20:07;;;;;;;19.15;10.63;;;;;;;;;;5069236;28;20036;-50
2021/01/17 07:22:34;;;;;;;18.52;10.55;;;;;;;;;;5069363;28;20089;-49
2021/01/17 07:25:00;;;;;;;18.58;10.77;;;;;;;;;;5069278;28;20078;-49
2021/01/17 07:27:45;;;;;;;24.45;12.25;;;;;;;;;;5069387;28;20031;-52
2021/01/17 07:30:17;;;;;;;26.38;13.65;;;;;;;;;;5065477;28;20024;-50
2021/01/17 07:32:53;;;;;;;22.45;13.50;;;;;;;;;;5068941;28;20516;-49
2021/01/17 07:35:24;;;;;;;27.83;13.70;;;;;;;;;;5068731;28;20029;-49
2021/01/17 07:37:53;;;;;;;29.05;13.55;;;;;;;;;;5068001;28;20036;-50
2021/01/17 07:40:49;;;;;;;23.20;12.38;;;;;;;;;;5066313;28;20063;-48
2021/01/17 07:43:08;;;;;;;20.92;11.65;;;;;;;;;;5053505;28;20044;-49
2021/01/17 07:45:38;;;;;;;18.85;10.63;;;;;;;;;;5056877;28;20046;-49
2021/01/17 07:48:06;;;;;;;17.52;9.93;;;;;;;;;;5069555;28;20114;-49
2021/01/17 07:50:36;;;;;;;14.80;9.38;;;;;;;;;;5068565;28;20017;-52
2021/01/17 07:53:03;;;;;;;14.65;9.27;;;;;;;;;;5067564;28;20033;-50
2021/01/17 07:55:30;;;;;;;17.58;9.68;;;;;;;;;;5067183;28;20021;-48
2021/01/17 07:57:56;;;;;;;19.90;12.05;;;;;;;;;;5069562;28;20049;-48
2021/01/17 08:00:28;;;;;;;19.98;12.38;;;;;;;;;;5069111;28;20070;-50
2021/01/17 08:02:54;;;;;;;17.15;10.18;;;;;;;;;;5064274;28;20122;-51
2021/01/17 08:05:40;;;;;;;15.60;9.27;;;;;;;;;;5040963;28;20377;-51
2021/01/17 08:08:26;;;;;;;16.42;9.50;;;;;;;;;;5066705;28;20024;-49
2021/01/17 08:10:52;;;;;;;15.43;8.80;;;;;;;;;;5049549;28;20032;-49
2021/01/17 08:13:18;;;;;;;14.15;8.43;;;;;;;;;;5069505;28;20803;-49
2021/01/17 08:15:44;;;;;;;14.30;7.88;;;;;;;;;;5067299;28;20024;-49
2021/01/17 08:18:10;;;;;;;15.27;8.35;;;;;;;;;;5066381;28;20417;-49
2021/01/17 08:20:37;;;;;;;13.57;8.20;;;;;;;;;;5066296;28;20044;-49
2021/01/17 08:23:09;;;;;;;12.00;7.78;;;;;;;;;;5062663;28;20052;-49
2021/01/17 08:26:03;;;;;;;15.05;8.35;;;;;;;;;;5063611;28;20032;-48
2021/01/17 08:28:30;;;;;;;15.65;8.95;;;;;;;;;;5062822;28;20067;-48
2021/01/17 08:30:56;;;;;;;15.85;8.82;;;;;;;;;;5067472;28;20440;-50
2021/01/17 08:33:26;;;;;;;13.55;8.32;;;;;;;;;;5067204;28;20020;-49
2021/01/17 08:35:52;;;;;;;14.52;9.25;;;;;;;;;;5064420;28;20111;-49
2021/01/17 08:38:19;;;;;;;17.75;10.23;;;;;;;;;;5067262;28;20086;-47
2021/01/17 08:40:49;;;;;;;19.40;11.45;;;;;;;;;;5065736;28;20430;-51
2021/01/17 08:43:16;;;;;;;58.80;28.65;;;;;;;;;;5066769;28;20498;-51
2021/01/17 08:45:43;;;;;;;63.55;30.92;;;;;;;;;;5067525;28;20033;-49
2021/01/17 08:48:18;;;;;;;50.33;25.88;;;;;;;;;;5067578;28;20153;-48
2021/01/17 08:50:44;;;;;;;42.30;22.90;;;;;;;;;;5067215;28;20032;-48
2021/01/17 08:53:24;;;;;;;36.17;18.88;;;;;;;;;;5067596;28;20036;-48
2021/01/17 08:55:59;;;;;;;34.50;18.63;;;;;;;;;;5063444;28;20393;-47
2021/01/17 08:58:28;;;;;;;31.00;16.63;;;;;;;;;;5058801;28;20017;-48
2021/01/17 09:00:57;;;;;;;31.60;17.38;;;;;;;;;;5069161;28;20024;-49
2021/01/17 09:03:27;;;;;;;43.85;24.38;;;;;;;;;;5068480;28;20051;-50
2021/01/17 09:05:57;;;;;;;41.80;22.13;;;;;;;;;;5065307;28;20021;-52
2021/01/17 09:08:24;;;;;;;40.63;20.92;;;;;;;;;;5068654;28;20028;-49
2021/01/17 09:10:50;;;;;;;39.40;20.83;;;;;;;;;;5068044;28;20081;-52
2021/01/17 09:13:19;;;;;;;35.92;19.40;;;;;;;;;;5066393;28;20024;-51
2021/01/17 09:16:02;;;;;;;31.38;17.35;;;;;;;;;;5067213;28;20028;-50
2021/01/17 09:18:30;;;;;;;30.27;17.20;;;;;;;;;;5067507;28;20248;-52
2021/01/17 09:20:57;;;;;;;33.30;17.17;;;;;;;;;;5068223;28;20502;-50
2021/01/17 09:23:25;;;;;;;29.00;15.13;;;;;;;;;;5067661;28;20024;-53
2021/01/17 09:25:59;;;;;;;27.27;15.50;;;;;;;;;;5065083;28;20086;-51
2021/01/17 09:28:25;;;;;;;;;;;;;;;;;;5065978;28;20055;-51
2021/01/17 09:30:51;;;;;;;20.35;11.93;;;;;;;;;;5065793;28;19912;-50
2021/01/17 09:33:19;;;;;;;17.85;10.38;;;;;;;;;;5062517;28;20056;-50
2021/01/17 09:35:45;;;;;;;18.83;10.55;;;;;;;;;;5064858;28;20036;-50
2021/01/17 09:38:21;;;;;;;17.55;8.95;;;;;;;;;;5065619;28;20032;-50
2021/01/17 09:40:48;;;;;;;17.33;9.23;;;;;;;;;;5065636;28;20090;-51
2021/01/17 09:43:16;;;;;;;16.60;9.52;;;;;;;;;;5065182;28;20032;-52
2021/01/17 09:45:53;;;;;;;23.25;10.98;;;;;;;;;;5065356;28;20037;-52
2021/01/17 09:48:21;;;;;;;23.67;11.95;;;;;;;;;;5062937;28;20047;-53
2021/01/17 09:50:47;;;;;;;18.88;10.63;;;;;;;;;;5066011;28;20036;-49
2021/01/17 09:53:13;;;;;;;20.13;11.02;;;;;;;;;;5066065;28;20025;-49
2021/01/17 09:55:40;;;;;;;19.10;11.40;;;;;;;;;;5067348;28;20103;-50
2021/01/17 09:58:08;;;;;;;19.38;10.63;;;;;;;;;;5065148;28;20028;-49
2021/01/17 10:00:34;;;;;;;16.52;9.52;;;;;;;;;;5066143;28;20046;-48
2021/01/17 10:03:07;;;;;;;18.52;11.07;;;;;;;;;;5067383;28;20036;-50
2021/01/17 10:05:38;;;;;;;15.25;9.90;;;;;;;;;;5047121;28;20090;-51
2021/01/17 10:08:05;;;;;;;18.38;9.18;;;;;;;;;;5058262;28;20383;-50
2021/01/17 10:10:34;;;;;;;14.07;8.63;;;;;;;;;;5060597;28;20430;-51
2021/01/17 10:13:01;;;;;;;15.65;9.52;;;;;;;;;;5066719;28;20028;-52
2021/01/17 10:15:27;;;;;;;17.25;9.95;;;;;;;;;;5049102;28;20021;-50
2021/01/17 10:17:53;;;;;;;14.35;8.85;;;;;;;;;;5065618;28;20032;-52
2021/01/17 10:20:25;;;;;;;17.00;9.60;;;;;;;;;;5066323;28;20032;-51
2021/01/17 10:23:01;;;;;;;14.75;9.10;;;;;;;;;;5067124;28;20121;-48
2021/01/17 10:25:27;;;;;;;14.75;9.07;;;;;;;;;;5066396;28;20024;-52
2021/01/17 10:28:00;;;;;;;16.33;9.10;;;;;;;;;;5067091;28;20040;-51
2021/01/17 10:30:27;;;;;;;15.38;9.27;;;;;;;;;;5076932;28;20032;-52
2021/01/17 10:33:01;;;;;;;13.73;8.32;;;;;;;;;;5082332;28;20035;-48
2021/01/17 10:35:28;;;;;;;13.35;7.60;;;;;;;;;;5065358;28;20028;-48
2021/01/17 10:37:55;;;;;;;13.35;8.30;;;;;;;;;;5065801;28;20047;-52
2021/01/17 10:40:27;;;;;;;12.60;7.35;;;;;;;;;;5065386;28;20580;-52
2021/01/17 10:42:54;;;;;;;21.58;11.15;;;;;;;;;;5062632;28;20494;-50
2021/01/17 10:45:21;;;;;;;22.05;11.30;;;;;;;;;;5066552;28;20112;-50
2021/01/17 10:47:47;;;;;;;22.60;11.73;;;;;;;;;;5066036;28;20039;-51
2021/01/17 10:50:17;;;;;;;21.17;12.07;;;;;;;;;;5065367;28;20033;-51
2021/01/17 10:53:02;;;;;;;22.38;12.02;;;;;;;;;;5066617;28;20024;-51
2021/01/17 10:55:33;;;;;;;21.38;12.05;;;;;;;;;;5065247;28;20586;-49
2021/01/17 10:58:00;;;;;;;19.25;10.77;;;;;;;;;;5065750;28;20124;-50
2021/01/17 11:00:26;;;;;;;19.38;11.95;;;;;;;;;;5065260;28;20035;-53
2021/01/17 11:03:06;;;;;;;22.42;11.35;;;;;;;;;;5066493;28;20037;-51
2021/01/17 11:05:32;;;;;;;16.98;9.90;;;;;;;;;;5062384;28;20525;-52
2021/01/17 11:07:59;;;;;;;16.73;9.80;;;;;;;;;;5047774;28;20036;-49
2021/01/17 11:10:25;;;;;;;18.73;10.13;;;;;;;;;;5066194;28;20025;-52
2021/01/17 11:12:51;;;;;;;18.80;10.85;;;;;;;;;;5063829;28;20432;-52
2021/01/17 11:15:19;;;;;;;17.70;10.90;;;;;;;;;;5066255;28;20041;-50
2021/01/17 11:17:52;;;;;;;17.48;10.43;;;;;;;;;;5064213;28;20036;-52
2021/01/17 11:20:24;;;;;;;17.58;10.25;;;;;;;;;;5065603;28;20658;-50
2021/01/17 11:22:50;;;;;;;16.70;9.73;;;;;;;;;;5065057;28;20032;-53
2021/01/17 11:25:20;;;;;;;19.58;11.43;;;;;;;;;;5064155;28;20029;-53
2021/01/17 11:27:46;;;;;;;19.77;12.15;;;;;;;;;;5063334;28;20075;-50
2021/01/17 11:30:14;;;;;;;17.75;10.57;;;;;;;;;;5064878;28;20020;-51
2021/01/17 11:32:40;;;;;;;19.13;11.23;;;;;;;;;;5065207;28;20588;-49
2021/01/17 11:35:06;;;;;;;20.85;12.38;;;;;;;;;;5066030;28;20432;-50
2021/01/17 11:37:36;;;;;;;20.30;12.60;;;;;;;;;;5067851;28;20077;-54
2021/01/17 11:40:05;;;;;;;22.63;12.57;;;;;;;;;;5066325;28;20056;-50
2021/01/17 11:42:31;;;;;;;21.17;12.27;;;;;;;;;;5067872;28;20035;-52
2021/01/17 11:44:59;;;;;;;21.95;12.55;;;;;;;;;;5057554;28;20389;-52
2021/01/17 11:47:25;;;;;;;20.15;11.68;;;;;;;;;;5067336;28;20055;-50
2021/01/17 11:49:51;;;;;;;20.38;12.23;;;;;;;;;;5069195;28;20032;-52
2021/01/17 11:52:17;;;;;;;21.27;11.65;;;;;;;;;;5069647;28;20591;-53
2021/01/17 11:54:43;;;;;;;20.73;12.60;;;;;;;;;;5067013;28;20041;-53
2021/01/17 11:57:10;;;;;;;22.05;13.68;;;;;;;;;;5068679;28;20029;-53
2021/01/17 11:59:37;;;;;;;20.20;12.55;;;;;;;;;;5060288;28;20063;-52
2021/01/17 12:02:38;;;;;;;21.85;12.35;;;;;;;;;;5069100;28;20025;-53
2021/01/17 12:05:04;;;;;;;19.52;11.75;;;;;;;;;;5006446;28;20046;-53
2021/01/17 12:07:30;;;;;;;18.00;10.88;;;;;;;;;;5056866;28;20457;-51
2021/01/17 12:10:06;;;;;;;16.63;9.95;;;;;;;;;;5068556;28;20486;-52
2021/01/17 12:12:36;;;;;;;16.50;10.02;;;;;;;;;;5068147;28;20025;-54
2021/01/17 12:15:04;;;;;;;15.82;9.90;;;;;;;;;;5067629;28;20040;-53
2021/01/17 12:17:30;;;;;;;18.20;11.30;;;;;;;;;;5065737;28;20033;-53
2021/01/17 12:19:56;;;;;;;16.05;10.00;;;;;;;;;;5060947;28;20467;-54
2021/01/17 12:22:22;;;;;;;17.77;10.18;;;;;;;;;;5067954;28;20032;-54
2021/01/17 12:24:48;;;;;;;15.02;9.20;;;;;;;;;;5068893;28;20135;-55
2021/01/17 12:27:14;;;;;;;14.80;9.20;;;;;;;;;;5066583;28;20028;-53
2021/01/17 12:29:40;;;;;;;14.77;8.70;;;;;;;;;;5068424;28;20044;-55
2021/01/17 12:32:06;;;;;;;13.23;8.20;;;;;;;;;;5068710;28;20027;-54
2021/01/17 12:34:32;;;;;;;12.35;7.90;;;;;;;;;;5067762;28;20028;-54
2021/01/17 12:36:59;;;;;;;10.60;6.50;;;;;;;;;;5068556;28;20087;-55
2021/01/17 12:39:25;;;;;;;12.82;8.05;;;;;;;;;;5068835;28;20134;-54
2021/01/17 12:41:52;;;;;;;12.50;6.75;;;;;;;;;;5067547;28;20032;-55
2021/01/17 12:44:19;;;;;;;10.77;6.68;;;;;;;;;;5064694;28;20054;-54
2021/01/17 12:46:46;;;;;;;10.82;6.85;;;;;;;;;;5066658;28;20052;-55
2021/01/17 12:49:13;;;;;;;11.90;7.22;;;;;;;;;;5067704;28;20541;-55
2021/01/17 12:51:39;;;;;;;14.60;9.15;;;;;;;;;;5067517;28;20126;-54
2021/01/17 12:54:05;;;;;;;14.23;8.68;;;;;;;;;;5069142;28;20033;-53
2021/01/17 12:56:32;;;;;;;18.10;10.35;;;;;;;;;;5068226;28;20024;-53
2021/01/17 12:58:58;;;;;;;15.85;9.00;;;;;;;;;;5068312;28;20020;-54
2021/01/17 13:01:24;;;;;;;18.33;9.73;;;;;;;;;;5068021;28;20027;-53
2021/01/17 13:03:50;;;;;;;18.38;10.63;;;;;;;;;;5064948;28;20390;-56
2021/01/17 13:06:16;;;;;;;17.52;10.85;;;;;;;;;;5068150;28;20024;-52
2021/01/17 13:08:43;;;;;;;19.60;11.00;;;;;;;;;;5066979;28;20090;-49
2021/01/17 13:11:10;;;;;;;26.52;14.07;;;;;;;;;;5067753;28;20029;-54
2021/01/17 13:13:37;;;;;;;21.33;12.52;;;;;;;;;;5067483;28;20029;-53
2021/01/17 13:16:05;;;;;;;21.55;11.32;;;;;;;;;;5067716;28;20988;-53
2021/01/17 13:18:31;;;;;;;29.15;15.98;;;;;;;;;;5066878;28;20020;-54
2021/01/17 13:20:59;;;;;;;28.65;15.50;;;;;;;;;;5068057;28;20032;-53
2021/01/17 13:23:25;;;;;;;24.30;13.93;;;;;;;;;;5067196;28;20538;-54
2021/01/17 13:25:52;;;;;;;23.75;13.05;;;;;;;;;;5066950;28;20029;-53
2021/01/17 13:28:18;;;;;;;22.67;12.70;;;;;;;;;;5067141;28;20554;-54
2021/01/17 13:30:44;;;;;;;19.60;10.30;;;;;;;;;;5067016;28;20375;-54
2021/01/17 13:33:13;;;;;;;18.48;9.88;;;;;;;;;;5066963;28;20043;-54
2021/01/17 13:35:42;;;;;;;17.75;8.85;;;;;;;;;;5066503;28;20025;-54
2021/01/17 13:38:09;;;;;;;13.13;7.38;;;;;;;;;;5066994;28;20067;-54
2021/01/17 13:40:35;;;;;;;14.10;7.95;;;;;;;;;;5066866;28;20028;-56
2021/01/17 13:43:01;;;;;;;13.65;7.57;;;;;;;;;;5066479;28;20028;-56
2021/01/17 13:45:27;;;;;;;15.98;8.05;;;;;;;;;;5065405;28;20036;-56
2021/01/17 13:47:53;;;;;;;15.27;8.90;;;;;;;;;;5066650;28;20047;-54
2021/01/17 13:50:19;;;;;;;15.18;9.05;;;;;;;;;;5066009;28;20059;-53
2021/01/17 13:52:46;;;;;;;15.95;10.15;;;;;;;;;;5066014;28;20641;-54
2021/01/17 13:55:13;;;;;;;14.65;9.35;;;;;;;;;;5065973;28;20091;-55
2021/01/17 13:57:40;;;;;;;14.55;8.40;;;;;;;;;;5065923;28;20032;-54
2021/01/17 14:00:06;;;;;;;13.18;8.02;;;;;;;;;;5064990;28;20054;-54
2021/01/17 14:02:32;;;;;;;12.57;7.45;;;;;;;;;;5062801;28;20043;-53
2021/01/17 14:05:00;;;;;;;12.02;7.50;;;;;;;;;;5065599;28;20670;-50
2021/01/17 14:07:26;;;;;;;13.10;7.82;;;;;;;;;;5065522;28;20086;-51
2021/01/17 14:09:52;;;;;;;17.40;10.43;;;;;;;;;;5065751;28;20820;-52
2021/01/17 14:12:18;;;;;;;19.13;10.30;;;;;;;;;;5064175;28;20261;-58
2021/01/17 14:14:45;;;;;;;17.52;10.10;;;;;;;;;;5064825;28;20051;-57
2021/01/17 14:17:11;;;;;;;25.73;12.25;;;;;;;;;;5066106;28;20028;-56
2021/01/17 14:19:38;;;;;;;30.65;13.40;;;;;;;;;;5066375;28;20036;-55
2021/01/17 14:22:04;;;;;;;41.22;16.98;;;;;;;;;;5065947;28;20046;-54
2021/01/17 14:24:30;;;;;;;37.50;15.68;;;;;;;;;;5062767;28;20103;-50
2021/01/17 14:26:56;;;;;;;33.63;15.38;;;;;;;;;;5064772;28;20379;-48
2021/01/17 14:29:22;;;;;;;37.38;17.50;;;;;;;;;;5064678;28;20643;-54
2021/01/17 14:31:49;;;;;;;35.28;16.33;;;;;;;;;;5065761;28;20547;-50
2021/01/17 14:34:16;;;;;;;29.95;14.10;;;;;;;;;;5064889;28;20036;-53